createdAt,value
2022-11-22T00:04:35.315Z,99967.00
2022-11-22T00:09:38.024Z,99968.31
2022-11-22T00:14:42.107Z,99987.56
2022-11-22T00:19:44.821Z,99986.78
2022-11-22T00:24:47.549Z,99992.72
2022-11-22T00:29:51.637Z,99989.00
2022-11-22T00:34:54.398Z,99989.00
2022-11-22T00:39:57.125Z,99990.78
2022-11-22T00:45:01.352Z,99990.91
2022-11-22T00:50:04.501Z,99996.75
2022-11-22T00:55:08.415Z,99999.31
2022-11-22T01:00:13.948Z,99975.16
2022-11-22T01:05:17.902Z,99973.25
2022-11-22T01:10:20.782Z,99974.13
2022-11-22T01:15:25.609Z,99955.41
2022-11-22T01:20:28.399Z,99953.84
2022-11-22T01:25:31.141Z,99965.97
2022-11-22T01:30:35.230Z,99967.53
2022-11-22T01:35:38.010Z,99973.47
2022-11-22T01:40:40.756Z,99966.91
2022-11-22T01:45:47.273Z,99954.88
2022-11-22T01:50:53.945Z,99951.41
2022-11-22T01:55:58.672Z,99957.97
2022-11-22T02:01:03.572Z,99960.97
2022-11-22T02:06:07.712Z,99959.91
2022-11-22T02:11:13.516Z,99959.41
2022-11-22T02:16:17.793Z,99956.06
2022-11-22T02:21:20.529Z,99952.44
2022-11-22T02:26:28.375Z,99950.09
2022-11-22T02:31:39.320Z,99954.25
2022-11-22T02:36:45.180Z,99950.88
2022-11-22T02:41:50.010Z,99947.00
2022-11-22T02:46:55.017Z,99939.13
2022-11-22T02:51:57.747Z,99929.56
2022-11-22T02:57:03.172Z,99915.25
2022-11-22T03:02:05.909Z,99911.38
2022-11-22T03:07:08.683Z,99909.19
2022-11-22T03:12:12.788Z,99907.09
2022-11-22T03:17:15.512Z,99899.22
2022-11-22T03:22:18.230Z,99889.16
2022-11-22T03:27:22.320Z,99887.63
2022-11-22T03:32:25.077Z,99891.09
2022-11-22T03:37:27.815Z,99881.41
2022-11-22T03:42:32.090Z,99885.94
2022-11-22T03:47:34.811Z,99883.38
2022-11-22T03:52:37.876Z,99881.03
2022-11-22T03:57:41.965Z,99881.84
2022-11-22T04:02:44.726Z,99881.56
2022-11-22T04:07:47.488Z,99885.69
2022-11-22T04:12:51.606Z,99870.59
2022-11-22T04:17:54.603Z,99858.19
2022-11-22T04:22:58.002Z,99851.38
2022-11-22T04:28:02.331Z,99838.09
2022-11-22T04:33:05.234Z,99834.59
2022-11-22T04:38:08.376Z,99830.59
2022-11-22T04:43:36.905Z,99841.69
2022-11-22T04:48:39.979Z,99856.03
2022-11-22T04:53:44.159Z,99844.38
2022-11-22T04:58:51.369Z,99855.47
2022-11-22T05:03:54.121Z,99858.47
2022-11-22T05:08:57.181Z,99856.78
2022-11-22T05:14:01.247Z,99842.72
2022-11-22T05:19:04.448Z,99840.41
2022-11-22T05:24:07.923Z,99856.66
2022-11-22T05:29:12.316Z,99842.06
2022-11-22T05:34:15.155Z,99834.69
2022-11-22T05:39:17.866Z,99835.38
2022-11-22T05:44:21.933Z,99836.13
2022-11-22T05:49:24.711Z,99816.63
2022-11-22T05:54:27.474Z,99823.22
2022-11-22T05:59:31.902Z,99835.22
2022-11-22T06:04:35.303Z,99834.44
2022-11-22T06:09:38.384Z,99842.97
2022-11-22T06:14:43.695Z,99857.28
2022-11-22T06:19:46.537Z,99866.97
2022-11-22T06:24:49.245Z,99865.94
2022-11-22T06:29:53.393Z,99883.34
2022-11-22T06:34:56.098Z,99903.63
2022-11-22T06:39:58.810Z,99884.41
2022-11-22T06:45:02.866Z,99880.91
2022-11-22T06:50:05.908Z,99863.75
2022-11-22T06:55:34.679Z,99866.06
2022-11-22T07:00:33.638Z,99877.28
2022-11-22T07:05:36.355Z,99889.31
2022-11-22T07:10:39.057Z,99886.47
2022-11-22T07:15:43.235Z,99885.56
2022-11-22T07:20:46.910Z,99890.72
2022-11-22T07:25:50.219Z,99889.44
2022-11-22T07:30:54.785Z,99895.88
2022-11-22T07:35:57.903Z,99904.00
2022-11-22T07:41:01.222Z,99898.84
2022-11-22T07:46:07.937Z,99888.25
2022-11-22T07:51:10.671Z,99878.47
2022-11-22T07:56:13.779Z,99884.13
2022-11-22T08:01:19.872Z,99899.38
2022-11-22T08:06:22.665Z,99893.28
2022-11-22T08:11:25.418Z,99887.22
2022-11-22T08:16:30.086Z,99880.09
2022-11-22T08:21:32.795Z,99882.16
2022-11-22T08:26:36.254Z,99871.31
2022-11-22T08:31:41.189Z,99862.56
2022-11-22T08:36:43.959Z,99871.06
2022-11-22T08:41:46.721Z,99881.91
2022-11-22T08:46:50.814Z,99874.66
2022-11-22T08:51:53.540Z,99890.81
2022-11-22T08:56:56.286Z,99890.16
2022-11-22T09:02:00.514Z,99911.47
2022-11-22T09:12:26.008Z,99901.88
2022-11-22T09:17:30.169Z,99904.44
2022-11-22T09:22:32.964Z,99894.09
2022-11-22T09:27:36.531Z,99885.88
2022-11-22T09:32:40.820Z,99885.59
2022-11-22T09:37:43.688Z,99877.94
2022-11-22T09:43:01.553Z,99852.44
2022-11-22T09:48:18.804Z,99850.56
2022-11-22T09:53:26.686Z,99873.47
2022-11-22T09:58:33.355Z,99880.88
2022-11-22T10:03:46.472Z,99888.78
2022-11-22T10:08:58.508Z,99879.09
2022-11-22T10:14:04.261Z,99893.34
2022-11-22T10:19:14.665Z,99891.88
2022-11-22T10:24:19.753Z,99891.72
2022-11-22T10:29:32.498Z,99887.28
2022-11-22T10:34:48.830Z,99896.84
2022-11-22T10:40:04.851Z,99912.56
2022-11-22T10:45:15.519Z,99909.63
2022-11-22T10:50:25.350Z,99905.44
2022-11-22T10:55:42.485Z,99914.84
2022-11-22T11:00:48.483Z,99898.56
2022-11-22T11:11:22.183Z,99896.34
2022-11-22T11:16:35.493Z,99901.84
2022-11-22T11:21:39.578Z,99904.00
2022-11-22T11:26:44.096Z,99907.81
2022-11-22T11:31:48.316Z,99899.47
2022-11-22T11:36:55.576Z,99896.44
2022-11-22T11:41:59.047Z,99887.50
2022-11-22T11:47:02.173Z,99886.03
2022-11-22T11:52:09.204Z,99889.16
2022-11-22T11:57:14.987Z,99887.53
2022-11-22T12:02:22.430Z,99894.91
2022-11-22T12:07:28.464Z,99893.28
2022-11-22T12:12:44.727Z,99877.63
2022-11-22T12:17:54.140Z,99894.91
2022-11-22T12:23:18.435Z,99880.56
2022-11-22T12:28:23.961Z,99877.63
2022-11-22T12:33:34.076Z,99893.88
2022-11-22T12:38:42.046Z,99879.66
2022-11-22T12:43:49.703Z,99888.41
2022-11-22T12:48:57.064Z,99886.34
2022-11-22T12:54:04.928Z,99884.78
2022-11-22T12:59:16.980Z,99875.75
2022-11-22T13:04:26.995Z,99882.66
2022-11-22T13:09:34.397Z,99894.94
2022-11-22T13:14:40.888Z,99880.81
2022-11-22T13:19:49.207Z,99883.19
2022-11-22T13:25:12.195Z,99878.63
2022-11-22T13:30:20.241Z,99881.38
2022-11-22T13:35:31.071Z,99880.44
2022-11-22T13:40:37.539Z,99868.88
2022-11-22T13:45:48.421Z,99874.31
2022-11-22T13:51:01.371Z,99870.38
2022-11-22T13:56:45.742Z,99862.75
2022-11-22T14:02:21.255Z,99874.16
2022-11-22T14:07:40.218Z,99859.41
2022-11-22T14:13:02.307Z,99864.72
2022-11-22T14:18:22.253Z,99878.06
2022-11-22T14:23:35.528Z,99877.09
2022-11-22T14:29:00.647Z,99870.84
2022-11-22T14:34:22.952Z,99863.41
2022-11-22T14:40:17.714Z,99866.66
2022-11-22T14:45:28.234Z,99879.00
2022-11-22T14:50:39.723Z,99886.88
2022-11-22T14:55:43.414Z,99886.31
2022-11-22T15:01:05.336Z,99884.78
2022-11-22T15:09:14.917Z,99890.94
2022-11-22T15:12:17.380Z,99905.72
2022-11-22T16:00:45.079Z,99927.25
2022-11-22T16:06:08.094Z,99923.53
2022-11-22T16:11:32.841Z,99925.16
2022-11-22T16:16:45.357Z,99933.44
2022-11-22T16:22:17.149Z,99932.28
2022-11-22T16:27:22.113Z,99916.06
2022-11-22T16:32:29.838Z,99917.19
2022-11-22T16:37:38.436Z,99913.28
2022-11-22T16:42:45.134Z,99913.38
2022-11-22T16:48:03.916Z,99914.16
2022-11-22T16:53:16.729Z,99917.84
2022-11-22T16:58:24.308Z,99924.84
2022-11-22T17:03:29.904Z,99912.34
2022-11-22T17:08:32.944Z,99923.38
2022-11-22T17:13:40.960Z,99926.09
2022-11-22T17:18:48.363Z,99934.56
2022-11-22T17:23:56.193Z,99934.13
2022-11-22T17:29:00.929Z,99944.06
2022-11-22T17:34:05.141Z,99937.75
2022-11-22T17:39:12.875Z,99949.22
2022-11-22T17:44:19.762Z,99942.81
2022-11-22T17:49:25.058Z,99942.00
2022-11-22T17:54:28.802Z,99934.34
2022-11-22T17:59:38.374Z,99949.00
2022-11-22T18:04:42.651Z,99947.53
2022-11-22T18:09:51.224Z,99958.72
2022-11-22T18:14:56.816Z,99974.28
2022-11-22T18:20:12.155Z,99972.69
2022-11-22T18:25:17.032Z,99987.91
2022-11-22T18:30:22.101Z,99995.34
2022-11-22T18:35:25.778Z,99996.72
2022-11-22T18:40:29.373Z,100002.34
2022-11-22T18:45:36.284Z,100008.66
2022-11-22T18:50:39.593Z,100010.78
2022-11-22T18:55:43.290Z,100006.09
2022-11-22T19:00:48.174Z,100012.97
2022-11-22T19:05:51.989Z,100008.66
2022-11-22T19:10:58.487Z,100002.47
2022-11-22T19:16:11.028Z,99996.81
2022-11-22T19:21:16.384Z,99985.97
2022-11-22T19:26:26.656Z,99987.44
2022-11-22T19:31:34.414Z,99985.22
2022-11-22T19:36:41.219Z,99988.34
2022-11-22T19:41:52.052Z,99990.34
2022-11-22T19:47:01.945Z,99998.38
2022-11-22T19:52:06.269Z,99998.59
2022-11-22T19:57:15.211Z,99985.88
2022-11-22T20:02:20.176Z,99992.16
2022-11-22T20:07:26.852Z,99996.25
2022-11-22T20:12:34.572Z,100008.53
2022-11-22T20:17:44.231Z,100002.22
2022-11-22T20:22:58.169Z,100004.91
2022-11-22T20:28:12.641Z,99986.00
2022-11-22T20:33:20.453Z,99996.13
2022-11-22T20:38:26.432Z,99989.59
2022-11-22T20:43:35.438Z,100001.88
2022-11-22T20:48:42.378Z,99995.09
2022-11-22T20:53:53.880Z,99996.91
2022-11-22T20:58:56.912Z,99992.16
2022-11-22T21:04:05.567Z,99995.53
2022-11-22T21:09:15.620Z,99994.19
2022-11-22T21:14:18.870Z,99997.34
2022-11-22T21:19:23.461Z,99988.56
2022-11-22T21:24:34.518Z,99988.69
2022-11-22T21:29:37.977Z,100002.44
2022-11-22T21:34:42.414Z,100004.81
2022-11-22T21:39:45.993Z,100007.88
2022-11-22T21:44:49.063Z,100003.38
2022-11-22T21:49:54.590Z,99996.59
2022-11-22T21:54:57.760Z,99997.50
2022-11-22T22:00:00.996Z,99999.88
2022-11-22T22:05:10.297Z,99995.69
2022-11-22T22:10:14.456Z,99995.81
2022-11-22T22:15:18.603Z,99994.81
2022-11-22T22:20:28.833Z,100001.91
2022-11-22T22:25:34.360Z,100006.88
2022-11-22T22:30:37.249Z,100017.91
2022-11-22T22:35:41.370Z,100021.19
2022-11-22T22:40:44.108Z,100014.66
2022-11-22T22:45:46.855Z,100010.59
2022-11-22T22:50:50.990Z,100010.72
2022-11-22T22:55:55.247Z,100005.72
2022-11-22T23:01:05.537Z,99999.03
2022-11-22T23:06:11.415Z,100014.72
2022-11-22T23:11:14.743Z,99993.41
2022-11-22T23:16:17.447Z,99993.72
2022-11-22T23:21:21.607Z,99977.81
2022-11-22T23:26:24.315Z,99985.50
2022-11-22T23:31:27.895Z,99996.88
2022-11-22T23:36:36.028Z,100002.44
2022-11-22T23:41:40.256Z,100020.03
2022-11-22T23:46:43.180Z,100013.34
2022-11-22T23:51:47.596Z,100007.50
2022-11-22T23:56:50.302Z,100003.28
